sensor_id;sensor_type;location;lat;lon;timestamp;P1;durP1;ratioP1;P2;durP2;ratioP2
78581;SDS011;67878;46.242;5.974;2023-04-03T00:01:19;2.90;;;2.60;;
78581;SDS011;67878;46.242;5.974;2023-04-03T00:03:52;3.20;;;2.63;;
78581;SDS011;67878;46.242;5.974;2023-04-03T00:06:25;2.88;;;2.28;;
78581;SDS011;67878;46.242;5.974;2023-04-03T00:08:51;3.72;;;2.20;;
78581;SDS011;67878;46.242;5.974;2023-04-03T00:11:17;3.25;;;2.20;;
78581;SDS011;67878;46.242;5.974;2023-04-03T00:13:43;2.83;;;2.38;;
78581;SDS011;67878;46.242;5.974;2023-04-03T00:16:10;2.95;;;2.65;;
78581;SDS011;67878;46.242;5.974;2023-04-03T00:18:43;2.70;;;2.28;;
78581;SDS011;67878;46.242;5.974;2023-04-03T00:21:12;3.40;;;2.40;;
78581;SDS011;67878;46.242;5.974;2023-04-03T00:23:41;3.05;;;2.20;;
78581;SDS011;67878;46.242;5.974;2023-04-03T00:26:10;3.00;;;2.08;;
78581;SDS011;67878;46.242;5.974;2023-04-03T00:28:42;2.38;;;2.13;;
78581;SDS011;67878;46.242;5.974;2023-04-03T00:31:11;2.63;;;2.20;;
78581;SDS011;67878;46.242;5.974;2023-04-03T00:33:42;3.53;;;2.28;;
78581;SDS011;67878;46.242;5.974;2023-04-03T00:36:10;3.13;;;2.55;;
78581;SDS011;67878;46.242;5.974;2023-04-03T00:38:36;3.03;;;2.33;;
78581;SDS011;67878;46.242;5.974;2023-04-03T00:41:02;2.22;;;2.03;;
78581;SDS011;67878;46.242;5.974;2023-04-03T00:43:27;2.50;;;2.05;;
78581;SDS011;67878;46.242;5.974;2023-04-03T00:45:53;2.80;;;2.15;;
78581;SDS011;67878;46.242;5.974;2023-04-03T00:48:31;2.80;;;2.00;;
78581;SDS011;67878;46.242;5.974;2023-04-03T00:51:07;2.33;;;1.90;;
78581;SDS011;67878;46.242;5.974;2023-04-03T00:53:46;1.88;;;1.67;;
78581;SDS011;67878;46.242;5.974;2023-04-03T00:56:28;2.65;;;2.00;;
78581;SDS011;67878;46.242;5.974;2023-04-03T00:59:16;2.08;;;1.83;;
78581;SDS011;67878;46.242;5.974;2023-04-03T01:02:10;2.45;;;1.90;;
78581;SDS011;67878;46.242;5.974;2023-04-03T01:04:39;2.25;;;2.00;;
78581;SDS011;67878;46.242;5.974;2023-04-03T01:07:12;2.42;;;1.90;;
78581;SDS011;67878;46.242;5.974;2023-04-03T01:09:41;2.80;;;1.77;;
78581;SDS011;67878;46.242;5.974;2023-04-03T01:14:45;2.65;;;2.10;;
78581;SDS011;67878;46.242;5.974;2023-04-03T01:17:32;2.15;;;1.75;;
78581;SDS011;67878;46.242;5.974;2023-04-03T01:22:42;2.00;;;1.70;;
78581;SDS011;67878;46.242;5.974;2023-04-03T01:27:42;2.13;;;1.63;;
78581;SDS011;67878;46.242;5.974;2023-04-03T01:30:08;2.30;;;1.70;;
78581;SDS011;67878;46.242;5.974;2023-04-03T01:32:34;2.67;;;1.80;;
78581;SDS011;67878;46.242;5.974;2023-04-03T01:35:00;1.95;;;1.65;;
78581;SDS011;67878;46.242;5.974;2023-04-03T01:37:25;2.13;;;1.77;;
78581;SDS011;67878;46.242;5.974;2023-04-03T01:39:51;2.80;;;1.90;;
78581;SDS011;67878;46.242;5.974;2023-04-03T01:42:16;2.00;;;1.77;;
78581;SDS011;67878;46.242;5.974;2023-04-03T01:44:42;1.77;;;1.40;;
78581;SDS011;67878;46.242;5.974;2023-04-03T01:47:07;1.83;;;1.38;;
78581;SDS011;67878;46.242;5.974;2023-04-03T01:49:33;2.05;;;1.80;;
78581;SDS011;67878;46.242;5.974;2023-04-03T01:51:59;2.45;;;1.70;;
78581;SDS011;67878;46.242;5.974;2023-04-03T01:54:24;1.95;;;1.38;;
78581;SDS011;67878;46.242;5.974;2023-04-03T01:56:50;2.03;;;1.65;;
78581;SDS011;67878;46.242;5.974;2023-04-03T01:59:16;2.35;;;1.70;;
78581;SDS011;67878;46.242;5.974;2023-04-03T02:01:43;1.65;;;1.30;;
78581;SDS011;67878;46.242;5.974;2023-04-03T02:04:10;1.92;;;1.60;;
78581;SDS011;67878;46.242;5.974;2023-04-03T02:06:36;1.65;;;1.52;;
78581;SDS011;67878;46.242;5.974;2023-04-03T02:09:01;1.90;;;1.50;;
78581;SDS011;67878;46.242;5.974;2023-04-03T02:11:27;1.60;;;1.50;;
78581;SDS011;67878;46.242;5.974;2023-04-03T02:13:53;1.70;;;1.50;;
78581;SDS011;67878;46.242;5.974;2023-04-03T02:16:18;2.20;;;1.50;;
78581;SDS011;67878;46.242;5.974;2023-04-03T02:18:43;2.63;;;1.50;;
78581;SDS011;67878;46.242;5.974;2023-04-03T02:21:09;1.70;;;1.45;;
78581;SDS011;67878;46.242;5.974;2023-04-03T02:23:34;2.00;;;1.67;;
78581;SDS011;67878;46.242;5.974;2023-04-03T02:26:05;1.85;;;1.40;;
78581;SDS011;67878;46.242;5.974;2023-04-03T02:28:35;2.08;;;1.40;;
78581;SDS011;67878;46.242;5.974;2023-04-03T02:31:00;2.15;;;1.45;;
78581;SDS011;67878;46.242;5.974;2023-04-03T02:33:26;1.55;;;1.40;;
78581;SDS011;67878;46.242;5.974;2023-04-03T02:35:52;1.52;;;1.40;;
78581;SDS011;67878;46.242;5.974;2023-04-03T02:38:18;1.40;;;1.02;;
78581;SDS011;67878;46.242;5.974;2023-04-03T02:40:44;1.50;;;1.23;;
78581;SDS011;67878;46.242;5.974;2023-04-03T02:43:09;1.50;;;1.25;;
78581;SDS011;67878;46.242;5.974;2023-04-03T02:45:35;1.83;;;1.35;;
78581;SDS011;67878;46.242;5.974;2023-04-03T02:48:00;1.85;;;1.50;;
78581;SDS011;67878;46.242;5.974;2023-04-03T02:50:26;1.50;;;1.30;;
78581;SDS011;67878;46.242;5.974;2023-04-03T02:52:51;2.67;;;1.50;;
78581;SDS011;67878;46.242;5.974;2023-04-03T02:55:16;2.05;;;1.30;;
78581;SDS011;67878;46.242;5.974;2023-04-03T02:57:42;2.53;;;1.45;;
78581;SDS011;67878;46.242;5.974;2023-04-03T03:00:07;2.03;;;1.40;;
78581;SDS011;67878;46.242;5.974;2023-04-03T03:02:33;1.73;;;1.30;;
78581;SDS011;67878;46.242;5.974;2023-04-03T03:04:59;1.90;;;1.25;;
78581;SDS011;67878;46.242;5.974;2023-04-03T03:07:24;1.75;;;1.25;;
78581;SDS011;67878;46.242;5.974;2023-04-03T03:09:51;1.92;;;1.15;;
78581;SDS011;67878;46.242;5.974;2023-04-03T03:12:16;1.10;;;1.00;;
78581;SDS011;67878;46.242;5.974;2023-04-03T03:14:46;2.42;;;1.27;;
78581;SDS011;67878;46.242;5.974;2023-04-03T03:17:11;1.17;;;1.08;;
78581;SDS011;67878;46.242;5.974;2023-04-03T03:19:37;2.15;;;1.48;;
78581;SDS011;67878;46.242;5.974;2023-04-03T03:22:02;1.80;;;1.20;;
78581;SDS011;67878;46.242;5.974;2023-04-03T03:24:28;2.50;;;1.13;;
78581;SDS011;67878;46.242;5.974;2023-04-03T03:26:53;1.70;;;1.00;;
78581;SDS011;67878;46.242;5.974;2023-04-03T03:29:18;2.22;;;1.23;;
78581;SDS011;67878;46.242;5.974;2023-04-03T03:31:44;1.50;;;1.40;;
78581;SDS011;67878;46.242;5.974;2023-04-03T03:34:10;1.70;;;1.08;;
78581;SDS011;67878;46.242;5.974;2023-04-03T03:36:35;1.30;;;1.13;;
78581;SDS011;67878;46.242;5.974;2023-04-03T03:39:01;2.85;;;1.25;;
78581;SDS011;67878;46.242;5.974;2023-04-03T03:41:26;1.10;;;1.00;;
78581;SDS011;67878;46.242;5.974;2023-04-03T03:43:52;1.50;;;1.13;;
78581;SDS011;67878;46.242;5.974;2023-04-03T03:46:17;1.10;;;1.00;;
78581;SDS011;67878;46.242;5.974;2023-04-03T03:48:43;1.40;;;1.00;;
78581;SDS011;67878;46.242;5.974;2023-04-03T03:51:08;1.23;;;1.00;;
78581;SDS011;67878;46.242;5.974;2023-04-03T03:53:33;1.23;;;0.98;;
78581;SDS011;67878;46.242;5.974;2023-04-03T03:55:59;1.48;;;1.00;;
78581;SDS011;67878;46.242;5.974;2023-04-03T03:58:25;1.60;;;1.10;;
78581;SDS011;67878;46.242;5.974;2023-04-03T04:00:50;1.58;;;1.00;;
78581;SDS011;67878;46.242;5.974;2023-04-03T04:03:16;1.55;;;0.93;;
78581;SDS011;67878;46.242;5.974;2023-04-03T04:05:41;1.55;;;1.00;;
78581;SDS011;67878;46.242;5.974;2023-04-03T04:08:07;1.58;;;1.00;;
78581;SDS011;67878;46.242;5.974;2023-04-03T04:10:33;1.20;;;1.00;;
78581;SDS011;67878;46.242;5.974;2023-04-03T04:12:59;0.90;;;0.80;;
78581;SDS011;67878;46.242;5.974;2023-04-03T04:15:25;1.23;;;0.90;;
78581;SDS011;67878;46.242;5.974;2023-04-03T04:17:52;1.30;;;1.10;;
78581;SDS011;67878;46.242;5.974;2023-04-03T04:20:18;1.40;;;1.00;;
78581;SDS011;67878;46.242;5.974;2023-04-03T04:22:45;1.10;;;0.75;;
78581;SDS011;67878;46.242;5.974;2023-04-03T04:27:37;1.00;;;0.87;;
78581;SDS011;67878;46.242;5.974;2023-04-03T04:30:03;0.90;;;0.70;;
78581;SDS011;67878;46.242;5.974;2023-04-03T04:32:30;1.15;;;1.02;;
78581;SDS011;67878;46.242;5.974;2023-04-03T04:34:59;1.20;;;1.00;;
78581;SDS011;67878;46.242;5.974;2023-04-03T04:37:24;1.08;;;0.98;;
78581;SDS011;67878;46.242;5.974;2023-04-03T04:39:51;1.17;;;1.00;;
78581;SDS011;67878;46.242;5.974;2023-04-03T04:42:18;1.08;;;0.98;;
78581;SDS011;67878;46.242;5.974;2023-04-03T04:44:43;2.25;;;1.05;;
78581;SDS011;67878;46.242;5.974;2023-04-03T04:47:09;1.00;;;0.77;;
78581;SDS011;67878;46.242;5.974;2023-04-03T04:49:35;1.65;;;0.90;;
78581;SDS011;67878;46.242;5.974;2023-04-03T04:52:01;1.20;;;0.90;;
78581;SDS011;67878;46.242;5.974;2023-04-03T04:54:26;0.82;;;0.80;;
78581;SDS011;67878;46.242;5.974;2023-04-03T04:56:52;0.90;;;0.80;;
78581;SDS011;67878;46.242;5.974;2023-04-03T04:59:19;1.35;;;0.88;;
78581;SDS011;67878;46.242;5.974;2023-04-03T05:01:46;1.00;;;0.82;;
78581;SDS011;67878;46.242;5.974;2023-04-03T05:04:14;0.88;;;0.73;;
78581;SDS011;67878;46.242;5.974;2023-04-03T05:06:43;1.48;;;0.90;;
78581;SDS011;67878;46.242;5.974;2023-04-03T05:09:13;1.40;;;1.10;;
78581;SDS011;67878;46.242;5.974;2023-04-03T05:11:40;1.20;;;1.02;;
78581;SDS011;67878;46.242;5.974;2023-04-03T05:14:05;1.02;;;0.90;;
78581;SDS011;67878;46.242;5.974;2023-04-03T05:16:32;1.55;;;0.90;;
78581;SDS011;67878;46.242;5.974;2023-04-03T05:19:03;1.40;;;0.73;;
78581;SDS011;67878;46.242;5.974;2023-04-03T05:21:32;1.73;;;1.08;;
78581;SDS011;67878;46.242;5.974;2023-04-03T05:24:00;0.88;;;0.77;;
78581;SDS011;67878;46.242;5.974;2023-04-03T05:28:53;1.77;;;0.95;;
78581;SDS011;67878;46.242;5.974;2023-04-03T05:31:20;1.10;;;0.90;;
78581;SDS011;67878;46.242;5.974;2023-04-03T05:33:46;0.85;;;0.80;;
78581;SDS011;67878;46.242;5.974;2023-04-03T05:36:12;1.00;;;0.85;;
78581;SDS011;67878;46.242;5.974;2023-04-03T05:38:40;1.38;;;0.80;;
78581;SDS011;67878;46.242;5.974;2023-04-03T05:41:06;0.93;;;0.80;;
78581;SDS011;67878;46.242;5.974;2023-04-03T05:43:31;0.90;;;0.60;;
78581;SDS011;67878;46.242;5.974;2023-04-03T05:45:58;0.68;;;0.50;;
78581;SDS011;67878;46.242;5.974;2023-04-03T05:48:24;1.75;;;0.80;;
78581;SDS011;67878;46.242;5.974;2023-04-03T05:50:51;1.65;;;0.80;;
78581;SDS011;67878;46.242;5.974;2023-04-03T05:53:24;1.55;;;0.82;;
78581;SDS011;67878;46.242;5.974;2023-04-03T05:55:55;2.13;;;0.70;;
78581;SDS011;67878;46.242;5.974;2023-04-03T05:58:21;0.98;;;0.70;;
78581;SDS011;67878;46.242;5.974;2023-04-03T06:00:46;2.20;;;0.73;;
78581;SDS011;67878;46.242;5.974;2023-04-03T06:03:13;1.08;;;0.80;;
78581;SDS011;67878;46.242;5.974;2023-04-03T06:05:44;0.82;;;0.68;;
78581;SDS011;67878;46.242;5.974;2023-04-03T06:08:12;0.98;;;0.80;;
78581;SDS011;67878;46.242;5.974;2023-04-03T06:10:41;1.15;;;0.50;;
78581;SDS011;67878;46.242;5.974;2023-04-03T06:13:11;1.73;;;0.98;;
78581;SDS011;67878;46.242;5.974;2023-04-03T06:15:43;2.92;;;1.02;;
78581;SDS011;67878;46.242;5.974;2023-04-03T06:18:12;4.10;;;1.40;;
78581;SDS011;67878;46.242;5.974;2023-04-03T06:20:39;3.22;;;0.82;;
78581;SDS011;67878;46.242;5.974;2023-04-03T06:23:04;3.88;;;1.30;;
78581;SDS011;67878;46.242;5.974;2023-04-03T06:25:31;3.97;;;0.93;;
78581;SDS011;67878;46.242;5.974;2023-04-03T06:30:23;5.47;;;1.17;;
78581;SDS011;67878;46.242;5.974;2023-04-03T06:32:52;2.95;;;1.13;;
78581;SDS011;67878;46.242;5.974;2023-04-03T06:35:18;3.42;;;1.50;;
78581;SDS011;67878;46.242;5.974;2023-04-03T06:37:43;5.13;;;1.27;;
78581;SDS011;67878;46.242;5.974;2023-04-03T06:40:15;2.47;;;1.10;;
78581;SDS011;67878;46.242;5.974;2023-04-03T06:42:46;4.63;;;1.13;;
78581;SDS011;67878;46.242;5.974;2023-04-03T06:45:13;2.85;;;1.17;;
78581;SDS011;67878;46.242;5.974;2023-04-03T06:47:42;3.55;;;1.10;;
78581;SDS011;67878;46.242;5.974;2023-04-03T06:50:08;3.63;;;1.10;;
78581;SDS011;67878;46.242;5.974;2023-04-03T06:52:36;4.07;;;1.00;;
78581;SDS011;67878;46.242;5.974;2023-04-03T06:55:02;2.20;;;0.90;;
78581;SDS011;67878;46.242;5.974;2023-04-03T06:57:27;3.60;;;1.00;;
78581;SDS011;67878;46.242;5.974;2023-04-03T06:59:53;1.90;;;0.85;;
78581;SDS011;67878;46.242;5.974;2023-04-03T07:02:22;3.15;;;0.80;;
78581;SDS011;67878;46.242;5.974;2023-04-03T07:04:50;2.50;;;1.05;;
78581;SDS011;67878;46.242;5.974;2023-04-03T07:07:24;2.70;;;0.70;;
78581;SDS011;67878;46.242;5.974;2023-04-03T07:09:51;2.85;;;0.90;;
78581;SDS011;67878;46.242;5.974;2023-04-03T07:12:20;2.58;;;0.80;;
78581;SDS011;67878;46.242;5.974;2023-04-03T07:14:45;1.42;;;0.73;;
78581;SDS011;67878;46.242;5.974;2023-04-03T07:17:18;1.77;;;0.75;;
78581;SDS011;67878;46.242;5.974;2023-04-03T07:19:46;1.25;;;0.75;;
78581;SDS011;67878;46.242;5.974;2023-04-03T07:22:12;3.17;;;0.70;;
78581;SDS011;67878;46.242;5.974;2023-04-03T07:24:38;2.08;;;0.70;;
78581;SDS011;67878;46.242;5.974;2023-04-03T07:27:03;2.58;;;0.82;;
78581;SDS011;67878;46.242;5.974;2023-04-03T07:29:29;2.45;;;0.82;;
78581;SDS011;67878;46.242;5.974;2023-04-03T07:31:57;1.77;;;0.80;;
78581;SDS011;67878;46.242;5.974;2023-04-03T07:34:24;2.13;;;1.10;;
78581;SDS011;67878;46.242;5.974;2023-04-03T07:36:55;3.80;;;0.90;;
78581;SDS011;67878;46.242;5.974;2023-04-03T07:39:23;1.77;;;0.85;;
78581;SDS011;67878;46.242;5.974;2023-04-03T07:41:49;3.03;;;1.00;;
78581;SDS011;67878;46.242;5.974;2023-04-03T07:44:15;1.35;;;0.95;;
78581;SDS011;67878;46.242;5.974;2023-04-03T07:46:42;2.45;;;0.70;;
78581;SDS011;67878;46.242;5.974;2023-04-03T07:49:10;0.93;;;0.65;;
78581;SDS011;67878;46.242;5.974;2023-04-03T07:51:36;1.10;;;0.90;;
78581;SDS011;67878;46.242;5.974;2023-04-03T07:54:01;4.03;;;0.90;;
78581;SDS011;67878;46.242;5.974;2023-04-03T07:56:27;2.22;;;1.05;;
78581;SDS011;67878;46.242;5.974;2023-04-03T07:58:52;1.70;;;0.80;;
78581;SDS011;67878;46.242;5.974;2023-04-03T08:01:19;1.67;;;0.80;;
78581;SDS011;67878;46.242;5.974;2023-04-03T08:03:47;1.27;;;0.82;;
78581;SDS011;67878;46.242;5.974;2023-04-03T08:06:15;1.30;;;1.00;;
78581;SDS011;67878;46.242;5.974;2023-04-03T08:08:42;2.55;;;0.90;;
78581;SDS011;67878;46.242;5.974;2023-04-03T08:11:09;1.52;;;1.00;;
78581;SDS011;67878;46.242;5.974;2023-04-03T08:13:36;2.13;;;0.85;;
78581;SDS011;67878;46.242;5.974;2023-04-03T08:16:10;1.52;;;0.90;;
78581;SDS011;67878;46.242;5.974;2023-04-03T08:18:38;1.75;;;1.00;;
78581;SDS011;67878;46.242;5.974;2023-04-03T08:21:08;1.70;;;1.00;;
78581;SDS011;67878;46.242;5.974;2023-04-03T08:23:34;1.20;;;0.88;;
78581;SDS011;67878;46.242;5.974;2023-04-03T08:26:04;3.00;;;1.17;;
78581;SDS011;67878;46.242;5.974;2023-04-03T08:28:31;2.40;;;0.90;;
78581;SDS011;67878;46.242;5.974;2023-04-03T08:31:01;2.97;;;0.98;;
78581;SDS011;67878;46.242;5.974;2023-04-03T08:33:27;1.65;;;1.30;;
78581;SDS011;67878;46.242;5.974;2023-04-03T08:35:53;3.53;;;1.25;;
78581;SDS011;67878;46.242;5.974;2023-04-03T08:38:18;4.15;;;1.20;;
78581;SDS011;67878;46.242;5.974;2023-04-03T08:40:43;7.15;;;1.95;;
78581;SDS011;67878;46.242;5.974;2023-04-03T08:46:02;5.15;;;1.67;;
78581;SDS011;67878;46.242;5.974;2023-04-03T08:48:33;8.02;;;1.70;;
78581;SDS011;67878;46.242;5.974;2023-04-03T08:51:01;5.60;;;1.63;;
78581;SDS011;67878;46.242;5.974;2023-04-03T08:53:30;3.80;;;1.60;;
78581;SDS011;67878;46.242;5.974;2023-04-03T08:55:59;4.93;;;1.90;;
78581;SDS011;67878;46.242;5.974;2023-04-03T08:58:42;5.55;;;1.55;;
78581;SDS011;67878;46.242;5.974;2023-04-03T09:01:23;2.75;;;1.27;;
78581;SDS011;67878;46.242;5.974;2023-04-03T09:03:52;3.70;;;1.60;;
78581;SDS011;67878;46.242;5.974;2023-04-03T09:06:22;3.95;;;1.77;;
78581;SDS011;67878;46.242;5.974;2023-04-03T09:20:06;2.22;;;1.33;;
78581;SDS011;67878;46.242;5.974;2023-04-03T09:22:34;2.35;;;1.30;;
78581;SDS011;67878;46.242;5.974;2023-04-03T09:25:14;2.40;;;1.55;;
78581;SDS011;67878;46.242;5.974;2023-04-03T09:27:43;2.60;;;1.30;;
78581;SDS011;67878;46.242;5.974;2023-04-03T09:30:16;1.95;;;1.27;;
78581;SDS011;67878;46.242;5.974;2023-04-03T09:32:54;3.30;;;1.23;;
78581;SDS011;67878;46.242;5.974;2023-04-03T09:40:31;2.45;;;1.40;;
78581;SDS011;67878;46.242;5.974;2023-04-03T09:45:49;2.97;;;1.30;;
78581;SDS011;67878;46.242;5.974;2023-04-03T09:48:17;2.03;;;1.25;;
78581;SDS011;67878;46.242;5.974;2023-04-03T09:56:03;1.63;;;0.90;;
78581;SDS011;67878;46.242;5.974;2023-04-03T09:58:47;2.75;;;1.00;;
78581;SDS011;67878;46.242;5.974;2023-04-03T10:01:38;2.00;;;1.17;;
78581;SDS011;67878;46.242;5.974;2023-04-03T10:04:39;1.02;;;0.93;;
78581;SDS011;67878;46.242;5.974;2023-04-03T10:09:31;1.65;;;0.95;;
78581;SDS011;67878;46.242;5.974;2023-04-03T10:12:10;1.70;;;1.15;;
78581;SDS011;67878;46.242;5.974;2023-04-03T10:14:38;1.10;;;0.98;;
78581;SDS011;67878;46.242;5.974;2023-04-03T10:22:21;1.10;;;0.98;;
78581;SDS011;67878;46.242;5.974;2023-04-03T10:30:36;1.65;;;1.08;;
78581;SDS011;67878;46.242;5.974;2023-04-03T10:39:05;2.35;;;0.93;;
78581;SDS011;67878;46.242;5.974;2023-04-03T11:01:53;1.55;;;1.00;;
78581;SDS011;67878;46.242;5.974;2023-04-03T11:04:44;3.03;;;0.80;;
78581;SDS011;67878;46.242;5.974;2023-04-03T11:07:25;2.63;;;1.00;;
78581;SDS011;67878;46.242;5.974;2023-04-03T11:09:54;1.48;;;0.90;;
78581;SDS011;67878;46.242;5.974;2023-04-03T11:14:53;0.95;;;0.73;;
78581;SDS011;67878;46.242;5.974;2023-04-03T11:22:36;1.30;;;1.00;;
78581;SDS011;67878;46.242;5.974;2023-04-03T11:27:41;1.55;;;1.05;;
78581;SDS011;67878;46.242;5.974;2023-04-03T11:30:16;3.45;;;1.60;;
78581;SDS011;67878;46.242;5.974;2023-04-03T11:35:43;1.27;;;1.17;;
78581;SDS011;67878;46.242;5.974;2023-04-03T11:38:12;2.58;;;1.20;;
78581;SDS011;67878;46.242;5.974;2023-04-03T11:40:43;2.80;;;1.27;;
78581;SDS011;67878;46.242;5.974;2023-04-03T11:43:28;1.88;;;1.38;;
78581;SDS011;67878;46.242;5.974;2023-04-03T11:45:56;4.28;;;1.27;;
78581;SDS011;67878;46.242;5.974;2023-04-03T11:53:35;4.32;;;1.38;;
78581;SDS011;67878;46.242;5.974;2023-04-03T11:59:14;3.40;;;1.30;;
78581;SDS011;67878;46.242;5.974;2023-04-03T12:01:46;3.72;;;1.30;;
78581;SDS011;67878;46.242;5.974;2023-04-03T12:04:17;2.05;;;1.00;;
78581;SDS011;67878;46.242;5.974;2023-04-03T12:11:46;2.55;;;1.20;;
78581;SDS011;67878;46.242;5.974;2023-04-03T12:14:15;1.58;;;1.30;;
78581;SDS011;67878;46.242;5.974;2023-04-03T12:16:42;2.90;;;1.05;;
78581;SDS011;67878;46.242;5.974;2023-04-03T12:22:18;2.20;;;1.20;;
78581;SDS011;67878;46.242;5.974;2023-04-03T12:24:46;2.10;;;1.10;;
78581;SDS011;67878;46.242;5.974;2023-04-03T12:49:58;2.55;;;1.10;;
78581;SDS011;67878;46.242;5.974;2023-04-03T12:53:24;1.73;;;1.20;;
78581;SDS011;67878;46.242;5.974;2023-04-03T12:55:26;1.30;;;1.00;;
78581;SDS011;67878;46.242;5.974;2023-04-03T12:57:52;1.23;;;0.95;;
78581;SDS011;67878;46.242;5.974;2023-04-03T13:00:28;1.75;;;1.08;;
78581;SDS011;67878;46.242;5.974;2023-04-03T13:03:03;1.73;;;1.13;;
78581;SDS011;67878;46.242;5.974;2023-04-03T13:05:31;2.28;;;1.10;;
78581;SDS011;67878;46.242;5.974;2023-04-03T13:08:05;1.10;;;0.80;;
78581;SDS011;67878;46.242;5.974;2023-04-03T13:10:35;1.48;;;0.98;;
78581;SDS011;67878;46.242;5.974;2023-04-03T13:13:10;1.42;;;1.10;;
78581;SDS011;67878;46.242;5.974;2023-04-03T13:15:41;1.88;;;1.08;;
78581;SDS011;67878;46.242;5.974;2023-04-03T13:18:28;0.90;;;0.80;;
78581;SDS011;67878;46.242;5.974;2023-04-03T13:21:02;1.77;;;0.90;;
78581;SDS011;67878;46.242;5.974;2023-04-03T13:23:34;1.17;;;0.95;;
78581;SDS011;67878;46.242;5.974;2023-04-03T13:26:04;1.10;;;1.00;;
78581;SDS011;67878;46.242;5.974;2023-04-03T13:28:31;1.27;;;0.93;;
78581;SDS011;67878;46.242;5.974;2023-04-03T13:31:02;1.30;;;1.10;;
78581;SDS011;67878;46.242;5.974;2023-04-03T13:33:30;0.80;;;0.80;;
78581;SDS011;67878;46.242;5.974;2023-04-03T13:36:00;1.10;;;0.82;;
78581;SDS011;67878;46.242;5.974;2023-04-03T13:38:34;1.45;;;0.80;;
78581;SDS011;67878;46.242;5.974;2023-04-03T13:41:21;1.13;;;1.02;;
78581;SDS011;67878;46.242;5.974;2023-04-03T13:44:15;1.00;;;0.90;;
78581;SDS011;67878;46.242;5.974;2023-04-03T13:46:44;1.27;;;0.90;;
78581;SDS011;67878;46.242;5.974;2023-04-03T13:49:19;1.00;;;0.90;;
78581;SDS011;67878;46.242;5.974;2023-04-03T13:51:51;1.13;;;1.02;;
78581;SDS011;67878;46.242;5.974;2023-04-03T13:54:24;1.00;;;0.90;;
78581;SDS011;67878;46.242;5.974;2023-04-03T13:56:56;1.33;;;1.00;;
78581;SDS011;67878;46.242;5.974;2023-04-03T14:04:49;0.88;;;0.82;;
78581;SDS011;67878;46.242;5.974;2023-04-03T14:07:16;1.30;;;0.75;;
78581;SDS011;67878;46.242;5.974;2023-04-03T14:09:43;2.55;;;0.90;;
78581;SDS011;67878;46.242;5.974;2023-04-03T14:12:12;1.08;;;0.90;;
78581;SDS011;67878;46.242;5.974;2023-04-03T14:14:41;1.13;;;1.02;;
78581;SDS011;67878;46.242;5.974;2023-04-03T14:17:13;1.42;;;1.05;;
78581;SDS011;67878;46.242;5.974;2023-04-03T14:19:42;1.92;;;1.10;;
78581;SDS011;67878;46.242;5.974;2023-04-03T14:22:16;1.10;;;1.00;;
78581;SDS011;67878;46.242;5.974;2023-04-03T14:24:47;1.30;;;1.10;;
78581;SDS011;67878;46.242;5.974;2023-04-03T14:27:24;1.40;;;1.02;;
78581;SDS011;67878;46.242;5.974;2023-04-03T14:32:21;2.55;;;1.10;;
78581;SDS011;67878;46.242;5.974;2023-04-03T14:34:48;1.27;;;0.95;;
78581;SDS011;67878;46.242;5.974;2023-04-03T14:37:16;1.08;;;0.93;;
78581;SDS011;67878;46.242;5.974;2023-04-03T14:39:44;1.23;;;1.10;;
78581;SDS011;67878;46.242;5.974;2023-04-03T14:42:12;1.00;;;0.90;;
78581;SDS011;67878;46.242;5.974;2023-04-03T14:44:39;1.13;;;1.00;;
78581;SDS011;67878;46.242;5.974;2023-04-03T14:47:04;1.25;;;1.00;;
78581;SDS011;67878;46.242;5.974;2023-04-03T14:49:29;1.20;;;1.10;;
78581;SDS011;67878;46.242;5.974;2023-04-03T14:51:58;1.10;;;1.00;;
78581;SDS011;67878;46.242;5.974;2023-04-03T14:54:24;1.15;;;0.93;;
78581;SDS011;67878;46.242;5.974;2023-04-03T14:56:55;1.20;;;1.10;;
78581;SDS011;67878;46.242;5.974;2023-04-03T14:59:25;0.85;;;0.82;;
78581;SDS011;67878;46.242;5.974;2023-04-03T15:01:51;1.60;;;1.05;;
78581;SDS011;67878;46.242;5.974;2023-04-03T15:04:20;1.73;;;0.90;;
78581;SDS011;67878;46.242;5.974;2023-04-03T15:06:46;1.10;;;1.00;;
78581;SDS011;67878;46.242;5.974;2023-04-03T15:09:22;1.63;;;1.10;;
78581;SDS011;67878;46.242;5.974;2023-04-03T15:11:51;1.13;;;1.02;;
78581;SDS011;67878;46.242;5.974;2023-04-03T15:14:17;1.23;;;1.13;;
78581;SDS011;67878;46.242;5.974;2023-04-03T15:16:43;1.00;;;0.90;;
78581;SDS011;67878;46.242;5.974;2023-04-03T15:19:09;3.05;;;1.15;;
78581;SDS011;67878;46.242;5.974;2023-04-03T15:21:35;1.23;;;0.82;;
78581;SDS011;67878;46.242;5.974;2023-04-03T15:24:00;1.00;;;0.90;;
78581;SDS011;67878;46.242;5.974;2023-04-03T15:26:26;2.08;;;1.15;;
78581;SDS011;67878;46.242;5.974;2023-04-03T15:28:52;1.13;;;1.05;;
78581;SDS011;67878;46.242;5.974;2023-04-03T15:31:20;1.08;;;0.98;;
78581;SDS011;67878;46.242;5.974;2023-04-03T15:33:50;1.40;;;1.30;;
78581;SDS011;67878;46.242;5.974;2023-04-03T15:36:18;1.13;;;1.02;;
78581;SDS011;67878;46.242;5.974;2023-04-03T15:38:43;1.10;;;1.00;;
78581;SDS011;67878;46.242;5.974;2023-04-03T15:41:09;2.40;;;1.50;;
78581;SDS011;67878;46.242;5.974;2023-04-03T15:43:34;1.30;;;1.20;;
78581;SDS011;67878;46.242;5.974;2023-04-03T15:46:01;1.15;;;1.05;;
78581;SDS011;67878;46.242;5.974;2023-04-03T15:48:35;1.10;;;1.00;;
78581;SDS011;67878;46.242;5.974;2023-04-03T15:51:02;1.23;;;1.13;;
78581;SDS011;67878;46.242;5.974;2023-04-03T15:53:32;1.23;;;1.13;;
78581;SDS011;67878;46.242;5.974;2023-04-03T15:55:57;1.20;;;1.10;;
78581;SDS011;67878;46.242;5.974;2023-04-03T15:58:22;1.77;;;1.33;;
78581;SDS011;67878;46.242;5.974;2023-04-03T16:00:48;1.10;;;1.00;;
78581;SDS011;67878;46.242;5.974;2023-04-03T16:03:17;1.70;;;1.10;;
78581;SDS011;67878;46.242;5.974;2023-04-03T16:05:43;1.02;;;0.95;;
78581;SDS011;67878;46.242;5.974;2023-04-03T16:08:11;1.20;;;1.10;;
78581;SDS011;67878;46.242;5.974;2023-04-03T16:10:42;1.50;;;1.08;;
78581;SDS011;67878;46.242;5.974;2023-04-03T16:13:11;1.05;;;0.85;;
78581;SDS011;67878;46.242;5.974;2023-04-03T16:15:37;1.20;;;1.10;;
78581;SDS011;67878;46.242;5.974;2023-04-03T16:18:03;1.20;;;0.95;;
78581;SDS011;67878;46.242;5.974;2023-04-03T16:20:29;2.22;;;1.00;;
78581;SDS011;67878;46.242;5.974;2023-04-03T16:22:55;1.23;;;1.13;;
78581;SDS011;67878;46.242;5.974;2023-04-03T16:25:22;1.00;;;0.90;;
78581;SDS011;67878;46.242;5.974;2023-04-03T16:27:47;1.90;;;1.27;;
78581;SDS011;67878;46.242;5.974;2023-04-03T16:30:13;1.13;;;1.00;;
78581;SDS011;67878;46.242;5.974;2023-04-03T16:32:39;1.85;;;1.30;;
78581;SDS011;67878;46.242;5.974;2023-04-03T16:37:38;1.30;;;1.20;;
78581;SDS011;67878;46.242;5.974;2023-04-03T16:40:05;3.10;;;1.15;;
78581;SDS011;67878;46.242;5.974;2023-04-03T16:42:32;2.78;;;1.13;;
78581;SDS011;67878;46.242;5.974;2023-04-03T16:44:57;1.95;;;1.33;;
78581;SDS011;67878;46.242;5.974;2023-04-03T16:47:25;3.15;;;1.50;;
78581;SDS011;67878;46.242;5.974;2023-04-03T16:49:51;2.70;;;1.48;;
78581;SDS011;67878;46.242;5.974;2023-04-03T16:52:16;1.50;;;1.40;;
78581;SDS011;67878;46.242;5.974;2023-04-03T16:54:41;2.25;;;1.48;;
78581;SDS011;67878;46.242;5.974;2023-04-03T16:57:07;2.30;;;1.40;;
78581;SDS011;67878;46.242;5.974;2023-04-03T16:59:32;3.47;;;1.55;;
78581;SDS011;67878;46.242;5.974;2023-04-03T17:01:58;9.82;;;2.10;;
78581;SDS011;67878;46.242;5.974;2023-04-03T17:04:23;3.28;;;1.63;;
78581;SDS011;67878;46.242;5.974;2023-04-03T17:06:48;2.42;;;1.70;;
78581;SDS011;67878;46.242;5.974;2023-04-03T17:09:14;5.05;;;2.42;;
78581;SDS011;67878;46.242;5.974;2023-04-03T17:11:40;2.75;;;2.50;;
78581;SDS011;67878;46.242;5.974;2023-04-03T17:14:06;4.00;;;2.83;;
78581;SDS011;67878;46.242;5.974;2023-04-03T17:16:33;2.45;;;2.25;;
78581;SDS011;67878;46.242;5.974;2023-04-03T17:19:00;3.50;;;3.08;;
78581;SDS011;67878;46.242;5.974;2023-04-03T17:21:26;3.38;;;2.63;;